createdAt,value
2018-12-13T00:00:58.741Z,80.93
2018-12-13T00:03:27.461Z,80.72
2018-12-13T00:05:56.379Z,80.68
2018-12-13T00:08:25.192Z,80.24
2018-12-13T00:10:54.099Z,79.97
2018-12-13T00:13:22.910Z,79.96
2018-12-13T00:15:52.148Z,79.60
2018-12-13T00:18:20.970Z,79.33
2018-12-13T00:20:49.716Z,79.37
2018-12-13T00:23:18.429Z,79.33
2018-12-13T00:25:47.152Z,79.28
2018-12-13T00:28:15.903Z,79.62
2018-12-13T00:30:44.768Z,79.71
2018-12-13T00:33:13.724Z,79.73
2018-12-13T00:35:42.517Z,80.16
2018-12-13T00:38:11.289Z,79.77
2018-12-13T00:40:40.036Z,79.83
2018-12-13T00:43:08.797Z,79.97
2018-12-13T00:45:37.560Z,79.93
2018-12-13T00:48:06.339Z,79.90
2018-12-13T00:50:34.952Z,80.01
2018-12-13T00:53:03.603Z,80.10
2018-12-13T00:55:32.299Z,80.35
2018-12-13T00:58:01.212Z,80.49
2018-12-13T01:00:30.260Z,80.27
2018-12-13T01:02:59.005Z,80.24
2018-12-13T01:05:27.751Z,80.30
2018-12-13T01:07:56.437Z,80.55
2018-12-13T01:10:25.233Z,80.67
2018-12-13T01:12:54.136Z,80.64
2018-12-13T01:15:23.249Z,80.75
2018-12-13T01:17:51.946Z,80.49
2018-12-13T01:20:20.775Z,80.23
2018-12-13T01:22:49.417Z,80.20
2018-12-13T01:25:18.398Z,80.04
2018-12-13T01:27:47.210Z,79.77
2018-12-13T01:30:15.856Z,79.45
2018-12-13T01:32:45.021Z,79.47
2018-12-13T01:35:14.073Z,79.25
2018-12-13T01:37:43.020Z,79.62
2018-12-13T01:40:11.653Z,79.75
2018-12-13T01:42:40.759Z,79.88
2018-12-13T01:45:09.516Z,79.87
2018-12-13T01:47:38.194Z,79.52
2018-12-13T01:50:07.129Z,79.58
2018-12-13T01:52:36.113Z,79.68
2018-12-13T01:55:06.026Z,79.72
2018-12-13T01:57:35.084Z,79.50
2018-12-13T02:00:06.072Z,79.65
2018-12-13T02:02:35.014Z,80.10
2018-12-13T02:05:03.864Z,80.74
2018-12-13T02:07:32.947Z,81.30
2018-12-13T02:10:01.795Z,80.89
2018-12-13T02:12:30.425Z,80.73
2018-12-13T02:15:00.360Z,80.28
2018-12-13T02:17:29.499Z,80.24
2018-12-13T02:19:58.241Z,79.85
2018-12-13T02:22:26.926Z,80.07
2018-12-13T02:27:34.794Z,79.31
2018-12-13T02:30:04.551Z,79.21
2018-12-13T02:32:33.236Z,79.44
2018-12-13T02:35:02.471Z,79.22
2018-12-13T02:37:31.330Z,78.82
2018-12-13T02:40:00.171Z,78.52
2018-12-13T02:42:28.889Z,78.20
2018-12-13T02:44:57.583Z,78.49
2018-12-13T02:47:26.265Z,78.73
2018-12-13T02:49:55.087Z,78.27
2018-12-13T02:52:23.891Z,78.64
2018-12-13T02:54:52.832Z,78.58
2018-12-13T02:57:21.509Z,78.53
2018-12-13T02:59:50.258Z,78.65
2018-12-13T03:02:19.319Z,78.58
2018-12-13T03:04:48.041Z,78.80
2018-12-13T03:07:16.821Z,78.89
2018-12-13T03:09:45.515Z,78.72
2018-12-13T03:12:14.706Z,78.82
2018-12-13T03:14:43.472Z,78.68
2018-12-13T03:17:12.618Z,78.87
2018-12-13T03:22:24.568Z,78.66
2018-12-13T03:24:53.447Z,79.29
2018-12-13T03:27:22.296Z,79.30
2018-12-13T03:29:51.216Z,79.47
2018-12-13T03:32:20.735Z,79.35
2018-12-13T03:34:49.731Z,79.14
2018-12-13T03:37:20.741Z,79.17
2018-12-13T03:39:49.468Z,79.18
2018-12-13T03:42:18.472Z,79.15
2018-12-13T03:44:47.408Z,79.18
2018-12-13T03:47:16.677Z,78.80
2018-12-13T03:49:45.474Z,78.88
2018-12-13T03:52:14.363Z,79.13
2018-12-13T03:54:43.470Z,78.65
2018-12-13T03:57:12.516Z,78.51
2018-12-13T03:59:41.380Z,78.54
2018-12-13T04:02:10.512Z,78.40
2018-12-13T04:04:39.550Z,78.75
2018-12-13T04:07:08.471Z,78.88
2018-12-13T04:09:37.356Z,78.79
2018-12-13T04:12:06.176Z,79.10
2018-12-13T04:14:35.163Z,79.19
2018-12-13T04:17:04.091Z,79.23
2018-12-13T04:19:32.785Z,79.14
2018-12-13T04:22:02.128Z,79.56
2018-12-13T04:24:31.306Z,79.80
2018-12-13T04:27:00.528Z,79.76
2018-12-13T04:29:29.297Z,79.48
2018-12-13T04:31:58.373Z,79.53
2018-12-13T04:34:27.215Z,79.39
2018-12-13T04:36:55.916Z,79.59
2018-12-13T04:39:24.889Z,79.59
2018-12-13T04:41:53.685Z,79.19
2018-12-13T04:44:22.612Z,79.24
2018-12-13T04:46:51.357Z,79.36
2018-12-13T04:49:20.497Z,78.70
2018-12-13T04:51:49.203Z,78.76
2018-12-13T04:54:20.997Z,78.90
2018-12-13T04:56:49.684Z,78.88
2018-12-13T04:59:18.737Z,78.97
2018-12-13T05:01:47.709Z,79.19
2018-12-13T05:04:16.453Z,79.12
2018-12-13T05:06:45.303Z,78.82
2018-12-13T05:09:14.555Z,79.28
2018-12-13T05:11:43.759Z,79.20
2018-12-13T05:14:12.552Z,78.65
2018-12-13T05:16:41.843Z,78.49
2018-12-13T05:19:10.585Z,78.00
2018-12-13T05:21:39.306Z,77.89
2018-12-13T05:24:08.210Z,77.89
2018-12-13T05:26:37.303Z,77.86
2018-12-13T05:29:06.013Z,77.55
2018-12-13T05:31:34.788Z,77.70
2018-12-13T05:34:03.607Z,77.72
2018-12-13T05:36:32.241Z,77.88
2018-12-13T05:39:01.219Z,77.94
2018-12-13T05:41:30.000Z,77.88
2018-12-13T05:43:59.060Z,76.99
2018-12-13T05:46:28.084Z,77.12
2018-12-13T05:48:56.833Z,77.39
2018-12-13T05:51:25.857Z,77.11
2018-12-13T05:53:54.723Z,77.25
2018-12-13T05:56:23.314Z,76.73
2018-12-13T05:58:52.044Z,77.25
2018-12-13T06:01:20.932Z,77.39
2018-12-13T06:03:49.944Z,77.55
2018-12-13T06:06:18.789Z,77.29
2018-12-13T06:08:47.561Z,77.36
2018-12-13T06:11:16.351Z,77.33
2018-12-13T06:13:45.331Z,77.61
2018-12-13T06:16:14.172Z,77.18
2018-12-13T06:18:43.444Z,77.44
2018-12-13T06:21:12.353Z,77.50
2018-12-13T06:23:41.215Z,77.88
2018-12-13T06:26:09.918Z,77.71
2018-12-13T06:28:38.511Z,77.78
2018-12-13T06:31:07.771Z,77.50
2018-12-13T06:33:36.530Z,77.50
2018-12-13T06:36:05.242Z,77.31
2018-12-13T06:38:33.962Z,77.53
2018-12-13T06:41:03.244Z,77.47
2018-12-13T06:43:32.027Z,77.66
2018-12-13T06:46:00.881Z,77.72
2018-12-13T06:48:29.789Z,78.10
2018-12-13T06:50:58.710Z,78.23
2018-12-13T06:53:27.419Z,78.06
2018-12-13T06:55:56.279Z,77.70
2018-12-13T06:58:25.059Z,78.17
2018-12-13T07:00:53.813Z,78.13
2018-12-13T07:03:22.488Z,78.08
2018-12-13T07:05:51.695Z,78.16
2018-12-13T07:08:20.815Z,77.97
2018-12-13T07:10:49.538Z,78.17
2018-12-13T07:13:18.533Z,77.85
2018-12-13T07:15:47.253Z,77.95
2018-12-13T07:18:16.083Z,77.92
2018-12-13T07:20:44.782Z,77.96
2018-12-13T07:23:13.710Z,77.75
2018-12-13T07:25:42.561Z,77.96
2018-12-13T07:28:11.516Z,78.06
2018-12-13T07:30:40.443Z,77.59
2018-12-13T07:33:09.399Z,77.81
2018-12-13T07:35:38.150Z,77.57
2018-12-13T07:38:06.737Z,77.92
2018-12-13T07:40:35.369Z,77.45
2018-12-13T07:43:05.460Z,77.33
2018-12-13T07:45:34.204Z,77.79
2018-12-13T07:48:03.293Z,77.37
2018-12-13T07:50:32.315Z,77.67
2018-12-13T07:53:01.387Z,77.56
2018-12-13T07:55:30.339Z,77.84
2018-12-13T07:57:59.068Z,77.81
2018-12-13T08:00:27.995Z,78.05
2018-12-13T08:02:56.677Z,77.74
2018-12-13T08:05:25.936Z,77.76
2018-12-13T08:07:54.649Z,77.72
2018-12-13T08:10:23.694Z,78.08
2018-12-13T08:12:52.584Z,77.78
2018-12-13T08:15:21.573Z,78.02
2018-12-13T08:17:50.480Z,77.62
2018-12-13T08:20:19.616Z,77.54
2018-12-13T08:22:49.905Z,77.46
2018-12-13T08:25:18.740Z,77.53
2018-12-13T08:27:48.013Z,77.33
2018-12-13T08:30:17.000Z,77.59
2018-12-13T08:32:45.979Z,77.66
2018-12-13T08:35:14.763Z,77.79
2018-12-13T08:37:43.869Z,77.77
2018-12-13T08:40:12.752Z,77.66
2018-12-13T08:42:41.479Z,77.76
2018-12-13T08:45:10.453Z,78.02
2018-12-13T08:47:39.409Z,78.01
2018-12-13T08:50:08.515Z,77.93
2018-12-13T08:52:37.588Z,78.17
2018-12-13T08:55:06.866Z,77.79
2018-12-13T08:57:35.543Z,77.87
2018-12-13T09:00:04.751Z,78.53
2018-12-13T09:02:33.852Z,78.48
2018-12-13T09:05:03.280Z,78.32
2018-12-13T09:07:32.571Z,78.05
2018-12-13T09:10:01.579Z,78.07
2018-12-13T09:12:30.296Z,77.95
2018-12-13T09:14:59.418Z,77.89
2018-12-13T09:17:28.494Z,77.87
2018-12-13T09:19:57.352Z,78.22
2018-12-13T09:22:26.732Z,78.02
2018-12-13T09:24:55.388Z,78.23
2018-12-13T09:27:24.456Z,78.56
2018-12-13T09:29:54.460Z,78.07
2018-12-13T09:32:23.326Z,78.60
2018-12-13T09:34:52.405Z,78.81
2018-12-13T09:37:21.308Z,78.97
2018-12-13T09:39:50.125Z,79.30
2018-12-13T09:42:18.902Z,78.59
2018-12-13T09:44:47.518Z,78.71
2018-12-13T09:47:16.631Z,78.56
2018-12-13T09:49:45.631Z,78.74
2018-12-13T09:52:14.725Z,78.81
2018-12-13T09:54:43.488Z,78.72
2018-12-13T09:57:12.391Z,78.84
2018-12-13T09:59:41.223Z,78.77
2018-12-13T10:02:10.045Z,78.56
2018-12-13T10:04:38.973Z,78.10
2018-12-13T10:07:07.901Z,77.65
2018-12-13T10:09:36.905Z,77.99
2018-12-13T10:12:05.996Z,77.28
2018-12-13T10:14:35.046Z,77.23
2018-12-13T10:17:03.932Z,77.40
2018-12-13T10:19:32.775Z,77.74
2018-12-13T10:22:02.130Z,77.64
2018-12-13T10:24:31.145Z,77.60
2018-12-13T10:27:00.048Z,77.59
2018-12-13T10:29:29.552Z,77.64
2018-12-13T10:31:58.897Z,77.65
2018-12-13T10:34:27.715Z,77.75
2018-12-13T10:36:56.634Z,77.95
2018-12-13T10:39:25.365Z,78.00
2018-12-13T10:41:54.228Z,78.07
2018-12-13T10:44:28.303Z,77.98
2018-12-13T10:46:57.165Z,78.12
2018-12-13T10:49:26.169Z,78.26
2018-12-13T10:51:55.342Z,78.35
2018-12-13T10:54:24.830Z,77.79
2018-12-13T10:56:54.555Z,77.83
2018-12-13T10:59:23.993Z,77.77
2018-12-13T11:01:57.955Z,78.01
2018-12-13T11:04:27.235Z,77.85
2018-12-13T11:06:55.952Z,78.00
2018-12-13T11:09:24.675Z,77.67
2018-12-13T11:11:53.842Z,77.65
2018-12-13T11:14:22.569Z,77.82
2018-12-13T11:16:51.509Z,77.88
2018-12-13T11:19:20.389Z,77.58
2018-12-13T11:21:49.588Z,77.54
2018-12-13T11:24:18.601Z,77.62
2018-12-13T11:26:47.538Z,77.31
2018-12-13T11:30:25.484Z,77.65
2018-12-13T11:32:54.593Z,77.52
2018-12-13T11:35:23.313Z,77.70
2018-12-13T11:37:52.378Z,77.60
2018-12-13T11:40:21.593Z,77.80
2018-12-13T11:42:50.268Z,77.93
2018-12-13T11:45:19.282Z,77.87
2018-12-13T11:47:48.002Z,77.95
2018-12-13T11:50:17.048Z,78.12
2018-12-13T11:52:47.080Z,78.35
2018-12-13T11:55:39.337Z,78.41
2018-12-13T11:58:12.660Z,78.48
2018-12-13T12:00:41.849Z,78.76
2018-12-13T12:03:10.637Z,78.90
2018-12-13T12:05:40.473Z,79.16
2018-12-13T12:08:09.728Z,78.82
2018-12-13T12:10:38.499Z,78.67
2018-12-13T12:13:07.879Z,78.98
2018-12-13T12:15:36.627Z,78.61
2018-12-13T12:18:05.521Z,78.82
2018-12-13T12:20:34.409Z,78.77
2018-12-13T12:23:03.365Z,78.79
2018-12-13T12:25:32.262Z,78.95
2018-12-13T12:28:01.267Z,78.80
2018-12-13T12:30:30.335Z,78.66
2018-12-13T12:32:59.959Z,79.03
2018-12-13T12:35:28.809Z,78.89
2018-12-13T12:37:57.603Z,78.92
2018-12-13T12:40:26.388Z,79.06
2018-12-13T12:42:55.336Z,79.34
2018-12-13T12:45:24.537Z,79.57
2018-12-13T12:47:53.659Z,79.49
2018-12-13T12:50:22.809Z,79.33
2018-12-13T12:52:51.604Z,79.07
2018-12-13T12:55:20.621Z,79.37
2018-12-13T12:57:49.406Z,79.54
2018-12-13T13:00:18.552Z,79.30
2018-12-13T13:02:49.026Z,79.39
2018-12-13T13:05:18.098Z,80.02
2018-12-13T13:07:47.006Z,80.32
2018-12-13T13:10:16.015Z,80.52
2018-12-13T13:12:45.204Z,80.97
2018-12-13T13:15:14.057Z,81.23
2018-12-13T13:17:43.139Z,81.03
2018-12-13T13:20:11.878Z,81.20
2018-12-13T13:22:40.766Z,81.24
2018-12-13T13:25:09.774Z,81.02
2018-12-13T13:27:39.144Z,80.84
2018-12-13T13:30:08.189Z,80.70
2018-12-13T13:32:37.055Z,80.56
2018-12-13T13:35:06.068Z,80.61
2018-12-13T13:37:34.946Z,80.61
2018-12-13T13:40:04.170Z,80.69
2018-12-13T13:42:32.951Z,80.79
2018-12-13T13:45:03.310Z,80.74
2018-12-13T13:47:32.011Z,80.82
2018-12-13T13:50:00.757Z,81.23
2018-12-13T13:52:29.545Z,81.38
2018-12-13T13:54:58.304Z,81.23
2018-12-13T13:57:26.946Z,80.99
2018-12-13T13:59:55.637Z,80.78
2018-12-13T14:02:24.380Z,80.87
2018-12-13T14:04:53.228Z,80.90
2018-12-13T14:07:22.148Z,80.62
2018-12-13T14:09:51.175Z,80.75
2018-12-13T14:12:19.854Z,80.38
2018-12-13T14:14:48.662Z,80.35
2018-12-13T14:17:17.824Z,80.50
2018-12-13T14:19:46.798Z,80.66
2018-12-13T14:22:15.522Z,80.51
2018-12-13T14:24:44.633Z,80.59
2018-12-13T14:27:14.392Z,80.75
2018-12-13T14:29:43.120Z,80.65
2018-12-13T14:32:11.845Z,80.98
2018-12-13T14:34:40.552Z,80.59
2018-12-13T14:37:09.457Z,80.43
2018-12-13T14:39:44.222Z,80.62
2018-12-13T14:42:09.294Z,80.80
2018-12-13T14:44:38.424Z,80.89
2018-12-13T14:47:07.994Z,80.95
2018-12-13T14:49:36.975Z,81.18
2018-12-13T14:52:06.168Z,80.92
2018-12-13T14:54:35.369Z,80.64
2018-12-13T14:57:04.490Z,80.57
2018-12-13T14:59:33.558Z,80.85
2018-12-13T15:02:03.074Z,81.15
2018-12-13T15:04:32.084Z,80.98
2018-12-13T15:07:02.204Z,81.06
2018-12-13T15:09:31.122Z,80.94
2018-12-13T15:12:00.103Z,81.05
2018-12-13T15:14:29.607Z,81.21
2018-12-13T15:16:58.318Z,81.20
2018-12-13T15:19:27.080Z,81.23
2018-12-13T15:21:56.289Z,81.24
2018-12-13T15:24:25.217Z,81.38
2018-12-13T15:26:55.312Z,80.98
2018-12-13T15:29:24.484Z,81.15
2018-12-13T15:31:59.279Z,81.27
2018-12-13T15:34:25.427Z,80.99
2018-12-13T15:36:55.545Z,81.03
2018-12-13T15:39:24.574Z,81.47
2018-12-13T15:41:54.409Z,81.22
2018-12-13T15:44:24.119Z,81.48
2018-12-13T15:46:54.063Z,81.10
2018-12-13T15:49:24.946Z,81.43
2018-12-13T15:51:54.797Z,81.16
2018-12-13T15:54:23.827Z,81.20
2018-12-13T15:56:53.803Z,80.97
2018-12-13T15:59:22.973Z,80.71
2018-12-13T16:01:52.621Z,81.08
2018-12-13T16:04:21.964Z,80.87
2018-12-13T16:06:51.320Z,81.02
2018-12-13T16:09:20.353Z,81.06
2018-12-13T16:11:49.971Z,80.86
2018-12-13T16:14:19.681Z,81.06
2018-12-13T16:16:48.658Z,81.11
2018-12-13T16:19:18.013Z,81.21
2018-12-13T16:21:47.435Z,81.47
2018-12-13T16:24:16.409Z,81.34
2018-12-13T16:26:45.519Z,80.96
2018-12-13T16:29:14.788Z,80.93
2018-12-13T16:31:44.180Z,80.87
2018-12-13T16:34:12.894Z,81.12
2018-12-13T16:36:41.852Z,81.05
2018-12-13T16:39:10.785Z,80.87
2018-12-13T16:41:39.887Z,80.61
2018-12-13T16:44:10.233Z,80.64
2018-12-13T16:46:39.521Z,80.43
2018-12-13T16:49:08.585Z,80.30
2018-12-13T16:51:37.275Z,80.60
2018-12-13T16:54:06.108Z,80.42
2018-12-13T16:56:35.369Z,80.13
2018-12-13T16:59:04.822Z,80.22
2018-12-13T17:01:33.907Z,80.60
2018-12-13T17:04:02.913Z,80.18
2018-12-13T17:06:31.765Z,79.97
2018-12-13T17:09:00.900Z,79.79
2018-12-13T17:11:29.626Z,80.12
2018-12-13T17:13:58.296Z,80.01
2018-12-13T17:16:27.227Z,80.20
2018-12-13T17:18:56.164Z,80.21
2018-12-13T17:21:25.071Z,80.25
2018-12-13T17:23:54.092Z,80.49
2018-12-13T17:26:23.047Z,80.27
2018-12-13T17:28:52.236Z,80.28
2018-12-13T17:31:21.452Z,80.39
2018-12-13T17:33:50.357Z,80.71
2018-12-13T17:36:19.134Z,80.77
2018-12-13T17:38:48.085Z,80.74
2018-12-13T17:41:16.964Z,81.33
2018-12-13T17:43:45.842Z,81.53
2018-12-13T17:46:14.494Z,81.40
2018-12-13T17:48:43.507Z,81.06
2018-12-13T17:51:12.407Z,80.86
2018-12-13T17:53:41.418Z,81.17
2018-12-13T17:56:10.801Z,80.47
2018-12-13T17:58:40.280Z,80.40
2018-12-13T18:01:09.150Z,81.06
2018-12-13T18:03:38.255Z,80.87
2018-12-13T18:06:07.133Z,81.35
2018-12-13T18:08:35.979Z,81.67
2018-12-13T18:11:04.812Z,82.06
2018-12-13T18:13:33.657Z,81.88
2018-12-13T18:16:02.927Z,81.61
2018-12-13T18:18:31.678Z,81.44
2018-12-13T18:21:01.200Z,81.27
2018-12-13T18:23:30.428Z,81.56
2018-12-13T18:25:59.189Z,81.23
2018-12-13T18:28:28.597Z,81.45
2018-12-13T18:30:57.385Z,81.42
2018-12-13T18:33:25.990Z,81.75
2018-12-13T18:35:54.739Z,81.67
2018-12-13T18:38:23.854Z,81.81
2018-12-13T18:40:53.023Z,82.16
2018-12-13T18:43:21.804Z,81.58
2018-12-13T18:45:50.565Z,81.29
2018-12-13T18:48:19.357Z,81.25
2018-12-13T18:50:48.136Z,81.50
2018-12-13T18:53:16.737Z,81.09
2018-12-13T18:55:45.496Z,80.96
2018-12-13T18:58:14.554Z,81.65
2018-12-13T19:00:43.358Z,81.36
2018-12-13T19:03:12.539Z,81.25
2018-12-13T19:05:41.701Z,81.06
2018-12-13T19:08:11.624Z,81.02
2018-12-13T19:10:42.011Z,81.12
2018-12-13T19:13:11.188Z,80.81
2018-12-13T19:15:40.171Z,80.78
2018-12-13T19:18:09.167Z,80.94
2018-12-13T19:20:38.346Z,80.54
2018-12-13T19:23:07.562Z,80.38
2018-12-13T19:25:36.282Z,80.91
2018-12-13T19:28:05.214Z,81.08
2018-12-13T19:30:34.493Z,80.96
2018-12-13T19:33:03.267Z,81.18
2018-12-13T19:35:31.892Z,81.05
2018-12-13T19:38:01.164Z,81.16
2018-12-13T19:40:30.938Z,81.53
2018-12-13T19:42:59.781Z,81.43
2018-12-13T19:45:29.024Z,81.46
2018-12-13T19:47:58.139Z,81.46
2018-12-13T19:50:26.919Z,81.49
2018-12-13T19:52:55.741Z,81.41
2018-12-13T19:55:24.630Z,81.39
2018-12-13T19:57:53.440Z,81.31
2018-12-13T20:00:22.330Z,81.26
2018-12-13T20:02:52.439Z,81.04
2018-12-13T20:05:21.716Z,80.88
2018-12-13T20:07:50.907Z,80.88
2018-12-13T20:14:04.024Z,80.58
2018-12-13T20:16:34.323Z,80.67
2018-12-13T20:19:05.220Z,81.19
2018-12-13T20:21:34.867Z,81.23
2018-12-13T20:24:04.196Z,81.05
2018-12-13T20:26:33.480Z,81.31
2018-12-13T20:29:02.941Z,80.93
2018-12-13T20:31:32.514Z,79.99
2018-12-13T20:34:01.859Z,80.12
2018-12-13T20:36:31.339Z,79.85
2018-12-13T20:39:01.390Z,80.29
2018-12-13T20:41:30.410Z,79.97
2018-12-13T20:43:59.990Z,80.25
2018-12-13T20:46:29.457Z,79.66
2018-12-13T20:48:59.026Z,79.89
2018-12-13T20:51:28.593Z,80.08
2018-12-13T20:53:57.915Z,80.08
2018-12-13T20:56:27.103Z,80.25
2018-12-13T20:58:56.409Z,80.26
2018-12-13T21:01:25.507Z,80.35
2018-12-13T21:03:55.720Z,80.31
2018-12-13T21:06:25.062Z,80.34
2018-12-13T21:08:54.114Z,79.89
2018-12-13T21:11:23.779Z,79.94
2018-12-13T21:13:53.891Z,79.82
2018-12-13T21:16:24.251Z,79.75
2018-12-13T21:18:53.727Z,79.90
2018-12-13T21:21:23.399Z,79.88
2018-12-13T21:23:52.896Z,79.95
2018-12-13T21:26:22.250Z,79.82
2018-12-13T21:28:51.342Z,79.76
2018-12-13T21:31:20.155Z,79.53
2018-12-13T21:33:49.356Z,79.56
2018-12-13T21:36:18.090Z,79.85
2018-12-13T21:38:47.047Z,79.48
2018-12-13T21:41:16.053Z,79.49
2018-12-13T21:43:44.908Z,79.84
2018-12-13T21:46:13.825Z,79.95
2018-12-13T21:48:42.479Z,79.96
2018-12-13T21:51:11.587Z,79.48
2018-12-13T21:53:40.570Z,79.73
2018-12-13T21:56:09.809Z,79.79
2018-12-13T21:58:38.458Z,79.92
2018-12-13T22:01:07.278Z,79.66
2018-12-13T22:03:36.423Z,79.83
2018-12-13T22:06:05.098Z,80.17
2018-12-13T22:08:34.201Z,80.17
2018-12-13T22:11:03.033Z,80.14
2018-12-13T22:13:31.927Z,80.04
2018-12-13T22:16:01.248Z,80.09
2018-12-13T22:18:29.891Z,80.11
2018-12-13T22:20:58.767Z,80.11
2018-12-13T22:23:28.166Z,80.03
2018-12-13T22:25:57.804Z,79.77
2018-12-13T22:28:27.563Z,79.87
2018-12-13T22:30:56.528Z,79.87
2018-12-13T22:33:25.460Z,80.07
2018-12-13T22:35:54.357Z,79.75
2018-12-13T22:38:23.123Z,79.63
2018-12-13T22:40:52.086Z,79.60
2018-12-13T22:43:21.225Z,79.92
2018-12-13T22:45:50.188Z,79.92
2018-12-13T22:48:19.363Z,79.91
2018-12-13T22:50:48.498Z,79.83
2018-12-13T22:53:17.803Z,79.78
2018-12-13T22:55:46.467Z,79.93
2018-12-13T22:58:15.243Z,80.15
2018-12-13T23:00:44.354Z,80.08
2018-12-13T23:03:13.483Z,80.33
2018-12-13T23:05:42.531Z,80.10
2018-12-13T23:08:11.211Z,80.17
2018-12-13T23:10:39.903Z,80.18
2018-12-13T23:14:20.526Z,79.72
2018-12-13T23:16:49.326Z,79.62
2018-12-13T23:19:18.243Z,79.62
2018-12-13T23:21:47.067Z,79.35
2018-12-13T23:24:15.875Z,79.14
2018-12-13T23:26:44.496Z,78.72
2018-12-13T23:29:13.443Z,78.36
2018-12-13T23:31:42.256Z,78.42
2018-12-13T23:34:11.320Z,78.47
2018-12-13T23:36:40.156Z,78.77
2018-12-13T23:39:09.146Z,78.60
2018-12-13T23:41:39.345Z,78.82
2018-12-13T23:44:08.640Z,79.05
2018-12-13T23:46:37.666Z,78.95
2018-12-13T23:49:06.584Z,79.30
2018-12-13T23:51:35.273Z,79.21
2018-12-13T23:54:04.232Z,79.63
2018-12-13T23:56:33.061Z,79.94
2018-12-13T23:59:02.309Z,80.21
